65989 UWGG-UUMU
Flight info
| Callsign | 65989 |
|---|---|
| Flight time | 0h 39m |
| Altitude | 30000 |
| Route | LARNO P985 OSPOM T787 URAGO |
| Aircraft | T134/M-SDE3GHIJ2J3J5M1RVWXY/LB2D1 |
Departure
| Time | 2026-04-26 12:59 |
|---|---|
| Airport | Nizhny Novgorod / Strigino International Airport (UWGG) |
Arrival
| Time | 2026-04-26 13:38 |
|---|---|
| Airport | Chkalovskiy Air Base (UUMU) |
| Time | Latitude | Longitude | Altitude | Speed | Heading |
|---|---|---|---|---|---|
| 2026-04-26 12:43 | 56.22854 | 43.79202 | 258 ft | 0 kts | 282° |
| 2026-04-26 12:52 | 56.22857 | 43.79180 | 257 ft | 5 kts | 283° |
| 2026-04-26 12:53 | 56.22879 | 43.79108 | 256 ft | 9 kts | 303° |
| 2026-04-26 12:53 | 56.22929 | 43.79013 | 253 ft | 12 kts | 17° |
| 2026-04-26 12:53 | 56.23017 | 43.79047 | 254 ft | 13 kts | 11° |
| 2026-04-26 12:53 | 56.23117 | 43.79084 | 255 ft | 14 kts | 11° |
| 2026-04-26 12:54 | 56.23190 | 43.79111 | 255 ft | 9 kts | 12° |
| 2026-04-26 12:54 | 56.23259 | 43.79136 | 256 ft | 13 kts | 13° |
| 2026-04-26 12:54 | 56.23392 | 43.79188 | 256 ft | 26 kts | 12° |
| 2026-04-26 12:54 | 56.23597 | 43.79232 | 255 ft | 30 kts | 2° |
| 2026-04-26 12:55 | 56.23805 | 43.79249 | 254 ft | 30 kts | 3° |
| 2026-04-26 12:55 | 56.24015 | 43.79263 | 253 ft | 27 kts | 354° |
| 2026-04-26 12:55 | 56.24069 | 43.79208 | 252 ft | 0 kts | 313° |
| 2026-04-26 12:56 | 56.24091 | 43.79150 | 251 ft | 15 kts | 301° |
| 2026-04-26 12:57 | 56.24094 | 43.78975 | 250 ft | 15 kts | 186° |
| 2026-04-26 12:57 | 56.24053 | 43.78965 | 250 ft | 0 kts | 192° |
| 2026-04-26 12:58 | 56.23838 | 43.78887 | 250 ft | 75 kts | 192° |
| 2026-04-26 12:58 | 56.23067 | 43.78604 | 251 ft | 148 kts | 192° |
| 2026-04-26 12:58 | 56.21911 | 43.78171 | 545 ft | 187 kts | 193° |
| 2026-04-26 12:59 | 56.20654 | 43.77678 | 1510 ft | 192 kts | 191° |
| 2026-04-26 12:59 | 56.19169 | 43.77192 | 1482 ft | 249 kts | 191° |
| 2026-04-26 12:59 | 56.17430 | 43.76255 | 1534 ft | 269 kts | 210° |
| 2026-04-26 12:59 | 56.15951 | 43.74184 | 1927 ft | 275 kts | 218° |
| 2026-04-26 13:00 | 56.14272 | 43.72553 | 2483 ft | 273 kts | 204° |
| 2026-04-26 13:00 | 56.12631 | 43.70970 | 3118 ft | 268 kts | 207° |
| 2026-04-26 13:00 | 56.10933 | 43.69590 | 3673 ft | 267 kts | 207° |
| 2026-04-26 13:00 | 56.09287 | 43.68114 | 4214 ft | 266 kts | 204° |
| 2026-04-26 13:01 | 56.07601 | 43.66717 | 4764 ft | 274 kts | 207° |
| 2026-04-26 13:01 | 56.05878 | 43.65262 | 5348 ft | 281 kts | 204° |
| 2026-04-26 13:01 | 56.04083 | 43.63724 | 5968 ft | 286 kts | 206° |
| 2026-04-26 13:01 | 56.02288 | 43.62183 | 6590 ft | 290 kts | 211° |
| 2026-04-26 13:02 | 56.00811 | 43.59860 | 7198 ft | 287 kts | 233° |
| 2026-04-26 13:02 | 55.99612 | 43.57090 | 7791 ft | 282 kts | 227° |
| 2026-04-26 13:02 | 55.98331 | 43.54446 | 8366 ft | 279 kts | 232° |
| 2026-04-26 13:02 | 55.97063 | 43.51854 | 8918 ft | 278 kts | 228° |
| 2026-04-26 13:03 | 55.95831 | 43.49263 | 9455 ft | 277 kts | 229° |
| 2026-04-26 13:03 | 55.94555 | 43.46702 | 9989 ft | 277 kts | 230° |
| 2026-04-26 13:03 | 55.93302 | 43.44112 | 10516 ft | 277 kts | 229° |
| 2026-04-26 13:03 | 55.92035 | 43.41528 | 11039 ft | 277 kts | 230° |
| 2026-04-26 13:04 | 55.90774 | 43.38969 | 11552 ft | 277 kts | 229° |
| 2026-04-26 13:04 | 55.89505 | 43.36372 | 12066 ft | 278 kts | 229° |
| 2026-04-26 13:04 | 55.88228 | 43.33779 | 12575 ft | 278 kts | 229° |
| 2026-04-26 13:04 | 55.86972 | 43.31226 | 13072 ft | 279 kts | 228° |
| 2026-04-26 13:05 | 55.85701 | 43.28643 | 13569 ft | 279 kts | 229° |
| 2026-04-26 13:05 | 55.84419 | 43.26057 | 14064 ft | 280 kts | 228° |
| 2026-04-26 13:05 | 55.83133 | 43.23489 | 14552 ft | 280 kts | 228° |
| 2026-04-26 13:05 | 55.81820 | 43.20871 | 15050 ft | 283 kts | 228° |
| 2026-04-26 13:06 | 55.80525 | 43.18268 | 15547 ft | 286 kts | 228° |
| 2026-04-26 13:06 | 55.79353 | 43.15420 | 16044 ft | 287 kts | 245° |
| 2026-04-26 13:06 | 55.78784 | 43.12032 | 16551 ft | 288 kts | 257° |
| 2026-04-26 13:06 | 55.78287 | 43.08620 | 17050 ft | 290 kts | 255° |
| 2026-04-26 13:07 | 55.77791 | 43.05165 | 17553 ft | 291 kts | 255° |
| 2026-04-26 13:07 | 55.77267 | 43.01682 | 18059 ft | 293 kts | 255° |
| 2026-04-26 13:07 | 55.76742 | 42.98192 | 18563 ft | 294 kts | 255° |
| 2026-04-26 13:07 | 55.76217 | 42.94730 | 19059 ft | 295 kts | 255° |
| 2026-04-26 13:08 | 55.75681 | 42.91217 | 19558 ft | 295 kts | 255° |
| 2026-04-26 13:08 | 55.75143 | 42.87690 | 20053 ft | 296 kts | 255° |
| 2026-04-26 13:08 | 55.74608 | 42.84195 | 20538 ft | 296 kts | 255° |
| 2026-04-26 13:08 | 55.74067 | 42.80666 | 21022 ft | 297 kts | 255° |
| 2026-04-26 13:09 | 55.73531 | 42.77173 | 21495 ft | 297 kts | 255° |
| 2026-04-26 13:09 | 55.72987 | 42.73637 | 21967 ft | 298 kts | 255° |
| 2026-04-26 13:09 | 55.72440 | 42.70089 | 22434 ft | 298 kts | 255° |
| 2026-04-26 13:09 | 55.71897 | 42.66575 | 22889 ft | 298 kts | 255° |
| 2026-04-26 13:10 | 55.71349 | 42.63041 | 23340 ft | 298 kts | 255° |
| 2026-04-26 13:10 | 55.70803 | 42.59520 | 23782 ft | 299 kts | 255° |
| 2026-04-26 13:10 | 55.70252 | 42.55985 | 24219 ft | 299 kts | 255° |
| 2026-04-26 13:10 | 55.69699 | 42.52436 | 24650 ft | 299 kts | 255° |
| 2026-04-26 13:11 | 55.69147 | 42.48899 | 25072 ft | 299 kts | 255° |
| 2026-04-26 13:11 | 55.68590 | 42.45346 | 25488 ft | 299 kts | 255° |
| 2026-04-26 13:11 | 55.68033 | 42.41792 | 25898 ft | 299 kts | 255° |
| 2026-04-26 13:11 | 55.67475 | 42.38244 | 26299 ft | 299 kts | 255° |
| 2026-04-26 13:12 | 55.66920 | 42.34723 | 26689 ft | 300 kts | 254° |
| 2026-04-26 13:12 | 55.66364 | 42.31202 | 27072 ft | 300 kts | 254° |
| 2026-04-26 13:12 | 55.65802 | 42.27654 | 27451 ft | 300 kts | 254° |
| 2026-04-26 13:12 | 55.65234 | 42.24074 | 27826 ft | 300 kts | 254° |
| 2026-04-26 13:13 | 55.64670 | 42.20530 | 28189 ft | 300 kts | 254° |
| 2026-04-26 13:13 | 55.64101 | 42.16962 | 28548 ft | 300 kts | 254° |
| 2026-04-26 13:13 | 55.63534 | 42.13408 | 28893 ft | 298 kts | 254° |
| 2026-04-26 13:13 | 55.62981 | 42.09946 | 29209 ft | 296 kts | 254° |
| 2026-04-26 13:14 | 55.62420 | 42.06443 | 29511 ft | 294 kts | 254° |
| 2026-04-26 13:14 | 55.61864 | 42.02978 | 29793 ft | 294 kts | 254° |
| 2026-04-26 13:14 | 55.61294 | 41.99439 | 29809 ft | 307 kts | 254° |
| 2026-04-26 13:14 | 55.60699 | 41.95745 | 29831 ft | 321 kts | 254° |
| 2026-04-26 13:15 | 55.60075 | 41.91887 | 29836 ft | 335 kts | 254° |
| 2026-04-26 13:15 | 55.59416 | 41.87816 | 29836 ft | 350 kts | 254° |
| 2026-04-26 13:15 | 55.58743 | 41.83632 | 29834 ft | 363 kts | 256° |
| 2026-04-26 13:15 | 55.58467 | 41.80690 | 29838 ft | 370 kts | 268° |
| 2026-04-26 13:16 | 55.58448 | 41.74503 | 29837 ft | 385 kts | 268° |
| 2026-04-26 13:16 | 55.58396 | 41.69700 | 29832 ft | 396 kts | 269° |
| 2026-04-26 13:16 | 55.58262 | 41.59810 | 29847 ft | 413 kts | 269° |
| 2026-04-26 13:17 | 55.58105 | 41.49538 | 29997 ft | 423 kts | 269° |
| 2026-04-26 13:17 | 55.58022 | 41.44305 | 30060 ft | 428 kts | 269° |
| 2026-04-26 13:18 | 55.57847 | 41.33756 | 30178 ft | 436 kts | 268° |
| 2026-04-26 13:18 | 55.57754 | 41.28370 | 30231 ft | 439 kts | 268° |
| 2026-04-26 13:19 | 55.57460 | 41.12170 | 30367 ft | 447 kts | 268° |
| 2026-04-26 13:19 | 55.57248 | 41.01130 | 30413 ft | 451 kts | 268° |
| 2026-04-26 13:20 | 55.57026 | 40.90048 | 30424 ft | 456 kts | 268° |
| 2026-04-26 13:20 | 55.56910 | 40.84434 | 30659 ft | 448 kts | 268° |
| 2026-04-26 13:20 | 55.56794 | 40.78950 | 30319 ft | 451 kts | 268° |
| 2026-04-26 13:20 | 55.56675 | 40.73436 | 30449 ft | 443 kts | 268° |
| 2026-04-26 13:21 | 55.56559 | 40.68167 | 30754 ft | 432 kts | 268° |
| 2026-04-26 13:21 | 55.56479 | 40.64599 | 30215 ft | 443 kts | 268° |
| 2026-04-26 13:21 | 55.56316 | 40.57476 | 30527 ft | 424 kts | 268° |
| 2026-04-26 13:22 | 55.56074 | 40.47244 | 30104 ft | 417 kts | 268° |
| 2026-04-26 13:22 | 55.55954 | 40.42224 | 30922 ft | 398 kts | 268° |
| 2026-04-26 13:22 | 55.55833 | 40.37344 | 31101 ft | 404 kts | 268° |
| 2026-04-26 13:23 | 55.55580 | 40.27323 | 31195 ft | 416 kts | 267° |
| 2026-04-26 13:23 | 55.55454 | 40.22352 | 31343 ft | 402 kts | 267° |
| 2026-04-26 13:23 | 55.55325 | 40.17423 | 31039 ft | 399 kts | 267° |
| 2026-04-26 13:23 | 55.55196 | 40.12607 | 30678 ft | 398 kts | 267° |
| 2026-04-26 13:24 | 55.55064 | 40.07724 | 30275 ft | 398 kts | 267° |
| 2026-04-26 13:24 | 55.54932 | 40.02872 | 29879 ft | 397 kts | 267° |
| 2026-04-26 13:24 | 55.54798 | 39.98039 | 29488 ft | 396 kts | 267° |
| 2026-04-26 13:24 | 55.54663 | 39.93205 | 29100 ft | 395 kts | 267° |
| 2026-04-26 13:25 | 55.54529 | 39.88411 | 28718 ft | 394 kts | 267° |
| 2026-04-26 13:25 | 55.54392 | 39.83591 | 28338 ft | 394 kts | 267° |
| 2026-04-26 13:25 | 55.54255 | 39.78777 | 27968 ft | 395 kts | 267° |
| 2026-04-26 13:25 | 55.54116 | 39.73969 | 27613 ft | 396 kts | 267° |
| 2026-04-26 13:26 | 55.53975 | 39.69152 | 27281 ft | 395 kts | 267° |
| 2026-04-26 13:26 | 55.53832 | 39.64280 | 26960 ft | 394 kts | 267° |
| 2026-04-26 13:26 | 55.53690 | 39.59463 | 26645 ft | 393 kts | 267° |
| 2026-04-26 13:26 | 55.53548 | 39.54683 | 26333 ft | 392 kts | 267° |
| 2026-04-26 13:27 | 55.53408 | 39.50021 | 26028 ft | 390 kts | 267° |
| 2026-04-26 13:27 | 55.53267 | 39.45290 | 25717 ft | 389 kts | 267° |
| 2026-04-26 13:27 | 55.53122 | 39.40521 | 25402 ft | 388 kts | 267° |
| 2026-04-26 13:27 | 55.52985 | 39.35982 | 25102 ft | 387 kts | 267° |
| 2026-04-26 13:28 | 55.52843 | 39.31255 | 24697 ft | 388 kts | 266° |
| 2026-04-26 13:28 | 55.52699 | 39.26482 | 24249 ft | 390 kts | 266° |
| 2026-04-26 13:28 | 55.52555 | 39.21703 | 23850 ft | 389 kts | 266° |
| 2026-04-26 13:28 | 55.52402 | 39.17008 | 23553 ft | 385 kts | 266° |
| 2026-04-26 13:29 | 55.52265 | 39.12461 | 23811 ft | 358 kts | 267° |
| 2026-04-26 13:29 | 55.52303 | 39.09460 | 22929 ft | 370 kts | 279° |
| 2026-04-26 13:29 | 55.53438 | 39.03854 | 22472 ft | 353 kts | 290° |
| 2026-04-26 13:29 | 55.54090 | 38.99920 | 23074 ft | 316 kts | 282° |
| 2026-04-26 13:30 | 55.54558 | 38.96312 | 23305 ft | 295 kts | 283° |
| 2026-04-26 13:30 | 55.55005 | 38.92863 | 23241 ft | 285 kts | 283° |
| 2026-04-26 13:30 | 55.55439 | 38.89500 | 23140 ft | 277 kts | 283° |
| 2026-04-26 13:30 | 55.55859 | 38.86237 | 23009 ft | 270 kts | 283° |
| 2026-04-26 13:31 | 55.56290 | 38.82885 | 21877 ft | 305 kts | 283° |
| 2026-04-26 13:31 | 55.56770 | 38.79127 | 20696 ft | 332 kts | 283° |
| 2026-04-26 13:31 | 55.57286 | 38.75079 | 19546 ft | 350 kts | 283° |
| 2026-04-26 13:31 | 55.57829 | 38.70825 | 18440 ft | 360 kts | 283° |
| 2026-04-26 13:32 | 55.58390 | 38.66523 | 17283 ft | 368 kts | 286° |
| 2026-04-26 13:32 | 55.59482 | 38.62505 | 16753 ft | 355 kts | 304° |
| 2026-04-26 13:32 | 55.61050 | 38.59170 | 15936 ft | 353 kts | 312° |
| 2026-04-26 13:32 | 55.62643 | 38.55947 | 14894 ft | 357 kts | 309° |
| 2026-04-26 13:33 | 55.64172 | 38.52519 | 13861 ft | 358 kts | 309° |
| 2026-04-26 13:33 | 55.65718 | 38.49087 | 12832 ft | 357 kts | 309° |
| 2026-04-26 13:33 | 55.67235 | 38.45699 | 11825 ft | 354 kts | 309° |
| 2026-04-26 13:33 | 55.68763 | 38.42284 | 10812 ft | 351 kts | 309° |
| 2026-04-26 13:34 | 55.70287 | 38.39039 | 9801 ft | 346 kts | 314° |
| 2026-04-26 13:34 | 55.71991 | 38.36074 | 8809 ft | 341 kts | 316° |
| 2026-04-26 13:34 | 55.73595 | 38.33101 | 7822 ft | 336 kts | 313° |
| 2026-04-26 13:34 | 55.74654 | 38.31122 | 7167 ft | 332 kts | 313° |
| 2026-04-26 13:35 | 55.76748 | 38.27205 | 5274 ft | 342 kts | 313° |
| 2026-04-26 13:35 | 55.78378 | 38.24168 | 4045 ft | 336 kts | 314° |
| 2026-04-26 13:35 | 55.79917 | 38.21267 | 3637 ft | 309 kts | 312° |
| 2026-04-26 13:35 | 55.81315 | 38.18664 | 2479 ft | 281 kts | 316° |
| 2026-04-26 13:36 | 55.82678 | 38.16481 | 1835 ft | 243 kts | 319° |
| 2026-04-26 13:36 | 55.83238 | 38.15648 | 1686 ft | 227 kts | 321° |
| 2026-04-26 13:36 | 55.84324 | 38.14055 | 1789 ft | 179 kts | 314° |
| 2026-04-26 13:36 | 55.85079 | 38.12340 | 1499 ft | 183 kts | 303° |
| 2026-04-26 13:37 | 55.85783 | 38.10390 | 1045 ft | 185 kts | 304° |
| 2026-04-26 13:37 | 55.86548 | 38.08602 | 631 ft | 177 kts | 311° |
| 2026-04-26 13:37 | 55.87329 | 38.07026 | 508 ft | 160 kts | 310° |
| 2026-04-26 13:37 | 55.87947 | 38.05714 | 507 ft | 116 kts | 310° |
| 2026-04-26 13:38 | 55.88350 | 38.04877 | 507 ft | 66 kts | 310° |
| 2026-04-26 13:38 | 55.88603 | 38.04347 | 507 ft | 47 kts | 311° |
| 2026-04-26 13:38 | 55.88788 | 38.03941 | 507 ft | 36 kts | 308° |
| 2026-04-26 13:38 | 55.88788 | 38.03791 | 507 ft | 1 kts | 120° |
| 2026-04-26 13:39 | 55.88778 | 38.03795 | 507 ft | 5 kts | 206° |
| 2026-04-26 13:39 | 55.88668 | 38.03720 | 507 ft | 20 kts | 192° |
| 2026-04-26 13:39 | 55.88646 | 38.03509 | 507 ft | 28 kts | 279° |
| 2026-04-26 13:39 | 55.88529 | 38.03281 | 507 ft | 35 kts | 209° |
| 2026-04-26 13:40 | 55.88253 | 38.03138 | 507 ft | 43 kts | 191° |
| 2026-04-26 13:40 | 55.88053 | 38.03075 | 507 ft | 0 kts | 193° |